FMNA Airport Information

Runway Information
Runway 13 Length 4921 ft width 98 ft
Elevation 312 ft Threshold 0 ft Heading 124
Runway 31 Length 4921 ft Width 98 ft
Elevation 374 ft Threshold 0 ft Heading 304
Airport Frequencies
Type A/G Name A/G VOICE Frequency 548.4 MHZ
Type AFIS Name AFIS INFO Frequency 118.1 MHZ
Airport Navaids
Type NDB Name Arrachart Frequency 390 KHZ
Airport Weather Information & NOTAM
ADDS - METARS form results

(0550 UTC 23 July 2018)
 
METAR text: FMNA 230500Z 14012KT 9999 FEW020 24/13 Q1018
Conditions at: FMNA (DIEGO-SUAREZ/ANT, KM) observed 0500 UTC 23 July 2018
Temperature: 24.0°C (75°F)
Dewpoint: 13.0°C (55°F) [RH = 50%]
Pressure (altimeter): 30.06 inches Hg (1018.0 mb)
Winds: from the SE (140 degrees) at 14 MPH (12 knots; 6.2 m/s)
Visibility: 6 or more miles (10+ km)
Ceiling: at least 12,000 feet AGL
Clouds: few clouds at 2000 feet AGL
Weather: no significant weather observed at this time